Time;durP1;ratioP1;P1;durP2;ratioP2;P2;SDS_P1;SDS_P2;PMS_P1;PMS_P2;Temp;Humidity;BMP_temperature;BMP_pressure;BME280_temperature;BME280_humidity;BME280_pressure;Samples;Min_cycle;Max_cycle;Signal;HPM_P1;HPM_P2
2023/12/13 00:01:12;;;;;;;2.70;1.15;;;;;;;7.48;100.00;99567.84;4991351;28;20041;-89
2023/12/13 00:03:37;;;;;;;4.25;1.27;;;;;;;7.44;100.00;99567.09;4999705;28;20041;-89
2023/12/13 00:06:03;;;;;;;1.80;1.10;;;;;;;7.40;100.00;99568.09;4987994;28;20062;-89
2023/12/13 00:08:28;;;;;;;2.45;1.20;;;;;;;7.37;100.00;99560.44;4994861;28;20105;-88
2023/12/13 00:10:58;;;;;;;3.25;1.00;;;;;;;7.35;100.00;99559.63;4999687;28;20045;-88
2023/12/13 00:13:25;;;;;;;2.25;1.00;;;;;;;7.35;100.00;99563.97;4984972;28;20022;-88
2023/12/13 00:15:50;;;;;;;4.35;1.30;;;;;;;7.32;100.00;99554.59;4994660;28;20068;-88
2023/12/13 00:18:16;;;;;;;4.50;1.10;;;;;;;7.30;100.00;99553.78;4986892;28;20540;-89
2023/12/13 00:20:41;;;;;;;2.78;1.00;;;;;;;7.26;100.00;99560.78;4984488;28;20030;-89
2023/12/13 00:23:06;;;;;;;2.85;0.95;;;;;;;7.23;100.00;99555.72;4990426;28;20076;-89
2023/12/13 00:25:32;;;;;;;3.40;1.05;;;;;;;7.22;100.00;99555.75;5006374;28;20026;-88
2023/12/13 00:27:57;;;;;;;3.88;1.45;;;;;;;7.21;100.00;99556.66;4988976;28;20030;-89
2023/12/13 00:30:23;;;;;;;1.75;0.90;;;;;;;7.21;100.00;99557.53;4994425;28;20028;-89
2023/12/13 00:32:48;;;;;;;4.88;1.10;;;;;;;7.22;100.00;99561.81;4992082;28;20053;-89
2023/12/13 00:35:14;;;;;;;2.63;1.10;;;;;;;7.22;100.00;99563.53;4992943;28;20022;-89
2023/12/13 00:37:39;;;;;;;1.25;0.88;;;;;;;7.22;100.00;99566.97;5001451;28;20069;-91
2023/12/13 00:40:06;;;;;;;3.20;1.00;;;;;;;7.22;100.00;99561.81;4998645;28;20492;-88
2023/12/13 00:42:31;;;;;;;1.30;0.80;;;;;;;7.24;100.00;99552.25;5000350;28;20018;-88
2023/12/13 00:44:57;;;;;;;3.10;1.02;;;;;;;7.26;100.00;99559.94;4995421;28;20331;-90
2023/12/13 00:47:22;;;;;;;3.22;1.10;;;;;;;7.24;100.00;99557.44;4998966;28;20053;-89
2023/12/13 00:49:47;;;;;;;3.00;1.00;;;;;;;7.25;100.00;99550.50;4990150;28;20110;-89
2023/12/13 00:52:13;;;;;;;3.28;1.00;;;;;;;7.26;100.00;99553.03;4997352;28;20045;-89
2023/12/13 00:54:38;;;;;;;3.03;0.95;;;;;;;7.25;100.00;99550.50;4993930;28;20032;-88
2023/12/13 00:57:06;;;;;;;3.80;1.00;;;;;;;7.23;100.00;99549.69;4989888;28;20114;-89
2023/12/13 00:59:32;;;;;;;3.28;1.00;;;;;;;7.26;100.00;99554.78;4997286;28;20104;-89
2023/12/13 01:01:57;;;;;;;3.00;0.90;;;;;;;7.23;100.00;99544.53;4999879;28;20190;-88
2023/12/13 01:04:23;;;;;;;2.47;1.30;;;;;;;7.22;100.00;99546.28;4999948;28;20093;-89
2023/12/13 01:06:48;;;;;;;2.25;0.95;;;;;;;7.22;100.00;99546.28;4994601;28;20174;-89
2023/12/13 01:09:14;;;;;;;3.90;1.05;;;;;;;7.22;100.00;99548.00;4989005;28;20555;-89
2023/12/13 01:11:39;;;;;;;3.25;0.80;;;;;;;7.21;100.00;99543.72;4990912;28;20026;-89
2023/12/13 01:14:04;;;;;;;2.70;0.82;;;;;;;7.22;100.00;99548.00;5004028;28;20026;-89
2023/12/13 01:16:30;;;;;;;4.22;1.10;;;;;;;7.21;100.00;99538.56;4994413;28;20085;-89
2023/12/13 01:18:55;;;;;;;4.00;1.15;;;;;;;7.22;100.00;99545.41;4997435;28;20034;-89
2023/12/13 01:21:21;;;;;;;3.30;1.30;;;;;;;7.21;100.00;99547.19;5003721;28;20112;-89
2023/12/13 01:23:46;;;;;;;4.18;1.60;;;;;;;7.21;100.00;99538.56;4989759;28;20017;-88
2023/12/13 01:26:11;;;;;;;5.03;1.60;;;;;;;7.22;100.00;99551.44;5001826;28;20118;-89
2023/12/13 01:28:37;;;;;;;3.50;1.35;;;;;;;7.21;100.00;99552.34;5002822;28;20080;-88
2023/12/13 01:31:07;;;;;;;5.50;1.58;;;;;;;7.22;100.00;99548.00;4989616;28;20491;-89
2023/12/13 01:33:32;;;;;;;3.08;1.10;;;;;;;7.22;100.00;99550.59;4988914;28;20014;-89
2023/12/13 01:36:00;;;;;;;2.47;1.30;;;;;;;7.22;100.00;99545.41;5002948;28;20022;-89
2023/12/13 01:38:25;;;;;;;5.13;2.00;;;;;;;7.21;100.00;99546.31;5001211;28;20031;-89
2023/12/13 01:40:51;;;;;;;2.90;1.20;;;;;;;7.20;100.00;99549.78;5000595;28;20504;-90
2023/12/13 01:43:21;;;;;;;3.22;1.40;;;;;;;7.20;100.00;99550.66;4993047;28;20825;-88
2023/12/13 01:45:46;;;;;;;4.03;1.42;;;;;;;7.18;100.00;99552.44;5001255;28;20495;-89
2023/12/13 01:48:12;;;;;;;3.70;1.38;;;;;;;7.18;100.00;99559.34;4988721;28;20026;-88
2023/12/13 01:50:37;;;;;;;4.70;1.70;;;;;;;7.19;100.00;99555.84;5002865;28;20498;-90
2023/12/13 01:53:03;;;;;;;4.00;1.40;;;;;;;7.18;100.00;99564.50;4994039;28;20704;-89
2023/12/13 01:55:28;;;;;;;5.00;1.55;;;;;;;7.15;100.00;99555.13;5003829;28;20026;-89
2023/12/13 01:57:54;;;;;;;6.20;1.40;;;;;;;7.15;100.00;99560.28;5006659;28;20474;-90
2023/12/13 02:00:20;;;;;;;4.18;1.42;;;;;;;7.16;100.00;99561.16;4995165;28;20124;-89
2023/12/13 02:02:47;;;;;;;5.15;1.50;;;;;;;7.15;100.00;99555.13;4989649;28;20023;-89
2023/12/13 02:05:13;;;;;;;2.95;1.40;;;;;;;7.16;100.00;99562.00;5004776;28;20030;-89
2023/12/13 02:07:39;;;;;;;3.85;1.55;;;;;;;7.14;100.00;99553.44;5003715;28;20395;-90
2023/12/13 02:10:06;;;;;;;3.40;1.40;;;;;;;7.14;100.00;99556.00;4992321;28;20034;-89
2023/12/13 02:12:32;;;;;;;4.40;1.50;;;;;;;7.14;100.00;99556.88;4990699;28;20027;-89
2023/12/13 02:14:57;;;;;;;3.05;1.33;;;;;;;7.13;100.00;99552.59;4995961;28;20030;-89
2023/12/13 02:17:23;;;;;;;3.28;1.50;;;;;;;7.13;100.00;99547.44;5001139;28;20385;-89
2023/12/13 02:19:48;;;;;;;3.85;1.35;;;;;;;7.16;100.00;99550.81;4994955;28;20029;-89
2023/12/13 02:22:13;;;;;;;5.57;1.70;;;;;;;7.14;100.00;99546.53;5009786;28;20462;-87
2023/12/13 02:24:42;;;;;;;4.05;1.60;;;;;;;7.14;100.00;99548.25;5002022;28;20072;-87
2023/12/13 02:27:08;;;;;;;2.78;1.30;;;;;;;7.14;100.00;99541.34;5008552;28;20022;-87
2023/12/13 02:29:34;;;;;;;6.20;1.40;;;;;;;7.14;100.00;99536.19;5006132;28;20018;-87
2023/12/13 02:31:59;;;;;;;5.68;1.70;;;;;;;7.14;100.00;99538.78;5009789;28;20037;-87
2023/12/13 02:34:24;;;;;;;3.83;1.50;;;;;;;7.14;100.00;99538.78;5004963;28;20032;-87
2023/12/13 02:36:50;;;;;;;6.18;1.60;;;;;;;7.13;100.00;99533.63;4993677;28;20064;-87
2023/12/13 02:39:15;;;;;;;4.30;1.55;;;;;;;7.15;100.00;99544.78;5007995;28;20476;-87
2023/12/13 02:41:41;;;;;;;3.92;1.70;;;;;;;7.15;100.00;99544.78;5003997;28;20495;-87
2023/12/13 02:44:06;;;;;;;6.45;1.88;;;;;;;7.16;100.00;99540.47;5003720;28;20029;-88
2023/12/13 02:46:31;;;;;;;4.63;1.73;;;;;;;7.16;100.00;99540.47;5005387;28;20104;-87
2023/12/13 02:48:58;;;;;;;5.35;1.98;;;;;;;7.14;100.00;99538.78;5006989;28;20034;-87
2023/12/13 02:51:23;;;;;;;3.88;1.63;;;;;;;7.16;100.00;99537.88;5003188;28;20022;-87
2023/12/13 02:53:48;;;;;;;4.35;1.70;;;;;;;7.16;100.00;99537.88;5005376;28;20025;-87
2023/12/13 02:56:14;;;;;;;3.53;1.90;;;;;;;7.14;100.00;99532.75;5007983;28;20400;-87
2023/12/13 02:58:40;;;;;;;5.70;2.03;;;;;;;7.15;100.00;99534.44;4996754;28;20029;-87
2023/12/13 03:01:06;;;;;;;3.72;1.85;;;;;;;7.14;100.00;99533.59;5010114;28;20499;-87
2023/12/13 03:03:31;;;;;;;5.40;1.58;;;;;;;7.14;100.00;99537.91;4991251;28;20017;-87
2023/12/13 03:05:57;;;;;;;4.03;1.70;;;;;;;7.13;100.00;99531.91;5005844;28;20033;-87
2023/12/13 03:08:22;;;;;;;4.38;1.80;;;;;;;7.16;100.00;99535.28;5011213;28;20493;-87
2023/12/13 03:10:47;;;;;;;3.13;1.70;;;;;;;7.17;100.00;99529.22;5002145;28;20030;-86
2023/12/13 03:13:13;;;;;;;5.45;2.03;;;;;;;7.17;100.00;99531.81;5001529;28;20477;-87
2023/12/13 03:15:38;;;;;;;5.55;1.70;;;;;;;7.18;100.00;99523.13;5005563;28;20046;-87
2023/12/13 03:18:03;;;;;;;4.88;1.73;;;;;;;7.20;100.00;99526.50;4991010;28;20022;-87
2023/12/13 03:20:30;;;;;;;8.20;2.10;;;;;;;7.20;100.00;99521.34;5008974;28;20208;-87
2023/12/13 03:22:55;;;;;;;5.35;2.25;;;;;;;7.20;100.00;99522.19;4993343;28;20053;-87
2023/12/13 03:25:21;;;;;;;6.22;2.38;;;;;;;7.21;100.00;99520.44;5007358;28;20173;-87
2023/12/13 03:27:46;;;;;;;5.88;2.35;;;;;;;7.23;100.00;99516.06;4994776;28;20043;-87
2023/12/13 03:30:12;;;;;;;3.63;2.15;;;;;;;7.22;100.00;99517.81;5004984;28;20022;-88
2023/12/13 03:32:41;;;;;;;5.45;2.33;;;;;;;7.23;100.00;99516.06;5007200;28;20033;-87
2023/12/13 03:35:06;;;;;;;4.93;2.30;;;;;;;7.23;100.00;99521.25;5003512;28;20389;-88
2023/12/13 03:37:33;;;;;;;4.18;2.40;;;;;;;7.24;100.00;99517.75;5006171;28;20485;-87
2023/12/13 03:39:58;;;;;;;8.00;2.72;;;;;;;7.24;100.00;99516.03;5007294;28;20094;-86
2023/12/13 03:42:24;;;;;;;5.68;2.80;;;;;;;7.24;100.00;99518.63;5008712;28;20030;-87
2023/12/13 03:44:49;;;;;;;9.35;2.78;;;;;;;7.25;100.00;99514.28;5003795;28;20062;-87
2023/12/13 03:47:14;;;;;;;7.13;2.55;;;;;;;7.26;100.00;99515.97;4993798;28;20064;-87
2023/12/13 03:49:40;;;;;;;5.22;2.13;;;;;;;7.26;100.00;99518.56;5010583;28;20022;-87
2023/12/13 03:52:07;;;;;;;5.13;2.00;;;;;;;7.27;100.00;99504.72;5003987;28;20076;-87
2023/12/13 03:54:32;;;;;;;6.30;2.20;;;;;;;7.27;100.00;99507.31;5002208;28;20023;-87
2023/12/13 03:56:58;;;;;;;6.28;2.10;;;;;;;7.27;100.00;99500.38;4992415;28;20029;-87
2023/12/13 03:59:23;;;;;;;7.32;2.22;;;;;;;7.27;100.00;99500.38;5004840;28;20029;-87
2023/12/13 04:01:49;;;;;;;7.53;1.98;;;;;;;7.28;100.00;99498.66;4994182;28;20469;-87
2023/12/13 04:04:14;;;;;;;7.72;2.00;;;;;;;7.28;100.00;99499.50;5003922;28;20089;-87
2023/12/13 04:06:39;;;;;;;7.40;2.15;;;;;;;7.28;100.00;99502.09;4999030;28;20436;-87
2023/12/13 04:09:05;;;;;;;7.28;2.00;;;;;;;7.29;100.00;99500.34;5001672;28;20104;-87
2023/12/13 04:11:30;;;;;;;5.95;1.73;;;;;;;7.29;100.00;99505.53;5005587;28;20045;-87
2023/12/13 04:13:55;;;;;;;3.10;1.40;;;;;;;7.27;100.00;99496.97;5006612;28;20036;-87
2023/12/13 04:16:21;;;;;;;6.00;1.90;;;;;;;7.25;100.00;99497.03;5004420;28;20065;-87
2023/12/13 04:18:46;;;;;;;5.82;1.60;;;;;;;7.24;100.00;99492.75;4988786;28;20065;-87
2023/12/13 04:21:11;;;;;;;6.80;1.67;;;;;;;7.25;100.00;99491.00;5004590;28;20034;-87
2023/12/13 04:23:36;;;;;;;6.20;1.70;;;;;;;7.23;100.00;99495.38;5002137;28;20068;-87
2023/12/13 04:26:02;;;;;;;9.40;1.80;;;;;;;7.22;100.00;99491.09;5003345;28;20029;-87
2023/12/13 04:28:27;;;;;;;5.18;1.65;;;;;;;7.23;100.00;99495.38;4998959;28;20026;-87
2023/12/13 04:30:52;;;;;;;4.30;1.60;;;;;;;7.23;100.00;99490.19;5002298;28;20108;-87
2023/12/13 04:33:18;;;;;;;4.60;1.55;;;;;;;7.23;100.00;99495.38;5001865;28;20029;-87
2023/12/13 04:35:44;;;;;;;7.80;1.77;;;;;;;7.22;100.00;99498.84;4997279;28;20079;-86
2023/12/13 04:38:09;;;;;;;5.03;1.65;;;;;;;7.24;100.00;99491.91;4990752;28;20033;-87
2023/12/13 04:40:35;;;;;;;6.05;1.55;;;;;;;7.23;100.00;99491.06;5004169;28;20026;-88
2023/12/13 04:43:00;;;;;;;4.82;1.48;;;;;;;7.25;100.00;99494.44;5003593;28;20029;-87
2023/12/13 04:45:26;;;;;;;4.38;1.52;;;;;;;7.27;100.00;99496.97;5002020;28;20099;-87
2023/12/13 04:47:51;;;;;;;5.63;1.80;;;;;;;7.26;100.00;99497.88;5006058;28;20057;-87
2023/12/13 04:50:16;;;;;;;5.35;1.67;;;;;;;7.28;100.00;99489.16;4999201;28;20061;-87
2023/12/13 04:52:42;;;;;;;7.07;1.60;;;;;;;7.28;100.00;99491.72;5003408;28;20026;-87
2023/12/13 04:55:07;;;;;;;7.40;1.70;;;;;;;7.29;100.00;99492.59;5001139;28;20452;-88
2023/12/13 04:57:33;;;;;;;4.85;1.60;;;;;;;7.30;100.00;99489.13;4998917;28;20027;-88
2023/12/13 04:59:58;;;;;;;4.72;1.48;;;;;;;7.29;100.00;99492.59;5004893;28;20026;-87
2023/12/13 05:02:23;;;;;;;12.00;2.03;;;;;;;7.29;100.00;99488.25;4990282;28;20036;-88
2023/12/13 05:04:49;;;;;;;9.85;1.92;;;;;;;7.30;100.00;99494.28;5002415;28;20050;-87
2023/12/13 05:07:14;;;;;;;5.65;1.67;;;;;;;7.30;100.00;99489.13;5003470;28;20479;-87
2023/12/13 05:09:40;;;;;;;5.40;1.60;;;;;;;7.31;100.00;99483.03;4998002;28;20042;-87
2023/12/13 05:12:05;;;;;;;7.65;2.50;;;;;;;7.31;100.00;99484.78;5008687;28;20047;-87
2023/12/13 05:14:31;;;;;;;8.75;1.80;;;;;;;7.29;100.00;99480.50;5004288;28;20026;-87
2023/12/13 05:16:56;;;;;;;7.57;1.60;;;;;;;7.31;100.00;99480.47;5000542;28;20061;-87
2023/12/13 05:19:21;;;;;;;5.35;1.83;;;;;;;7.32;100.00;99484.72;4989791;28;20037;-87
2023/12/13 05:21:47;;;;;;;6.18;1.83;;;;;;;7.32;100.00;99476.97;4989114;28;20030;-87
2023/12/13 05:24:12;;;;;;;5.40;1.80;;;;;;;7.33;100.00;99477.81;5003855;28;20476;-87
2023/12/13 05:26:37;;;;;;;6.45;1.60;;;;;;;7.34;100.00;99476.91;5006408;28;20061;-87
2023/12/13 05:29:03;;;;;;;8.20;1.90;;;;;;;7.32;100.00;99476.09;5001130;28;20492;-87
2023/12/13 05:31:28;;;;;;;6.13;1.88;;;;;;;7.32;100.00;99474.38;5003703;28;20061;-87
2023/12/13 05:33:54;;;;;;;8.55;1.60;;;;;;;7.33;100.00;99476.06;5006962;28;20031;-87
2023/12/13 05:36:19;;;;;;;5.45;1.50;;;;;;;7.34;100.00;99477.78;5012366;28;20034;-88
2023/12/13 05:38:45;;;;;;;5.10;1.58;;;;;;;7.36;100.00;99477.69;4993229;28;20023;-87
2023/12/13 05:41:10;;;;;;;7.78;1.65;;;;;;;7.35;100.00;99476.84;5002952;28;20022;-87
2023/12/13 05:43:36;;;;;;;8.45;1.83;;;;;;;7.37;100.00;99476.81;5004394;28;20029;-87
2023/12/13 05:46:02;;;;;;;5.45;1.88;;;;;;;7.36;100.00;99477.69;5005904;28;20017;-87
2023/12/13 05:48:27;;;;;;;5.18;1.52;;;;;;;7.37;100.00;99477.63;5009992;28;20030;-87
2023/12/13 05:50:53;;;;;;;7.03;1.88;;;;;;;7.38;100.00;99468.97;5004417;28;20040;-87
2023/12/13 05:53:18;;;;;;;8.73;1.88;;;;;;;7.39;100.00;99475.84;5006290;28;20109;-87
2023/12/13 05:55:43;;;;;;;8.95;1.50;;;;;;;7.38;100.00;99474.16;5007005;28;20097;-87
2023/12/13 05:58:09;;;;;;;6.60;1.60;;;;;;;7.41;100.00;99475.81;4996387;28;20499;-87
2023/12/13 06:00:35;;;;;;;7.13;1.40;;;;;;;7.41;100.00;99474.06;4999631;28;20030;-88
2023/12/13 06:03:00;;;;;;;4.78;1.65;;;;;;;7.41;100.00;99484.41;5010600;28;20430;-88
2023/12/13 06:05:26;;;;;;;6.45;1.60;;;;;;;7.42;100.00;99482.69;5005507;28;20105;-87
2023/12/13 06:07:51;;;;;;;5.30;1.55;;;;;;;7.43;100.00;99489.50;5007880;28;20402;-87
2023/12/13 06:10:17;;;;;;;7.18;1.80;;;;;;;7.43;100.00;99486.94;5008748;28;20030;-87
2023/12/13 06:12:43;;;;;;;5.03;1.48;;;;;;;7.42;100.00;99480.91;5009882;28;20021;-87
2023/12/13 06:15:08;;;;;;;5.05;1.52;;;;;;;7.43;100.00;99490.38;5006830;28;20037;-87
2023/12/13 06:17:34;;;;;;;7.35;1.90;;;;;;;7.42;100.00;99491.28;4999773;28;20064;-88
2023/12/13 06:20:00;;;;;;;6.70;1.42;;;;;;;7.41;100.00;99488.75;4991255;28;20045;-87
2023/12/13 06:22:26;;;;;;;6.15;1.65;;;;;;;7.41;100.00;99493.91;4995257;28;20125;-87
2023/12/13 06:24:51;;;;;;;4.93;1.88;;;;;;;7.37;100.00;99498.34;5012586;28;20469;-87
2023/12/13 06:27:16;;;;;;;5.07;1.80;;;;;;;7.38;100.00;99500.03;5003203;28;20032;-87
2023/12/13 06:29:42;;;;;;;6.32;1.83;;;;;;;7.38;100.00;99494.03;5013549;28;20026;-87
2023/12/13 06:32:07;;;;;;;4.53;1.67;;;;;;;7.37;100.00;99500.94;4999814;28;20492;-87
2023/12/13 06:34:32;;;;;;;8.75;1.92;;;;;;;7.36;100.00;99501.81;5003910;28;20028;-87
2023/12/13 06:36:58;;;;;;;7.38;1.55;;;;;;;7.37;100.00;99508.69;4995242;28;20105;-87
2023/12/13 06:39:23;;;;;;;9.40;1.90;;;;;;;7.38;100.00;99504.38;5008923;28;20241;-87
2023/12/13 06:41:49;;;;;;;6.15;1.92;;;;;;;7.37;100.00;99506.09;5002875;28;20044;-87
2023/12/13 06:44:16;;;;;;;8.93;1.73;;;;;;;7.39;100.00;99506.06;5000431;28;20018;-87
2023/12/13 06:46:41;;;;;;;5.47;1.75;;;;;;;7.39;100.00;99501.72;5003794;28;20028;-87
2023/12/13 06:49:09;;;;;;;3.78;1.63;;;;;;;7.37;100.00;99503.50;4998853;28;20392;-87
2023/12/13 06:51:34;;;;;;;9.15;2.10;;;;;;;7.37;100.00;99502.69;4985882;28;20030;-87
2023/12/13 06:54:00;;;;;;;7.95;2.00;;;;;;;7.38;100.00;99506.97;4988864;28;20026;-87
2023/12/13 06:56:25;;;;;;;9.48;2.20;;;;;;;7.37;100.00;99503.50;4998655;28;20021;-88
2023/12/13 06:58:50;;;;;;;5.72;1.90;;;;;;;7.37;100.00;99500.09;4994619;28;20393;-87
2023/12/13 07:01:16;;;;;;;7.57;2.38;;;;;;;7.37;100.00;99500.09;4988722;28;20069;-87
2023/12/13 07:03:41;;;;;;;7.55;2.08;;;;;;;7.37;100.00;99498.34;4993046;28;20026;-87
2023/12/13 07:06:07;;;;;;;6.80;1.88;;;;;;;7.37;100.00;99497.50;4997355;28;20026;-87
2023/12/13 07:08:34;;;;;;;6.80;1.88;;;;;;;7.40;100.00;99502.59;4990767;28;20022;-87
2023/12/13 07:11:00;;;;;;;5.70;1.85;;;;;;;7.40;100.00;99507.75;4987815;28;20041;-87
2023/12/13 07:13:26;;;;;;;6.85;2.20;;;;;;;7.39;100.00;99506.06;4994487;28;20049;-87
2023/12/13 07:15:52;;;;;;;6.90;2.10;;;;;;;7.39;100.00;99506.06;4991345;28;20502;-87
2023/12/13 07:18:18;;;;;;;5.57;1.77;;;;;;;7.39;100.00;99506.91;5004703;28;20038;-87
2023/12/13 07:20:43;;;;;;;7.15;2.20;;;;;;;7.38;100.00;99507.78;5007376;28;20028;-87
2023/12/13 07:23:08;;;;;;;6.10;2.00;;;;;;;7.39;100.00;99511.25;5007143;28;20485;-87
2023/12/13 07:25:34;;;;;;;7.78;2.50;;;;;;;7.38;100.00;99515.56;5000840;28;20532;-87
2023/12/13 07:28:00;;;;;;;8.73;2.35;;;;;;;7.38;100.00;99515.56;5009143;28;20432;-87
2023/12/13 07:30:25;;;;;;;8.13;2.55;;;;;;;7.38;100.00;99515.56;5005155;28;20486;-88
2023/12/13 07:32:51;;;;;;;6.68;2.40;;;;;;;7.38;100.00;99522.47;4997780;28;20105;-87
2023/12/13 07:35:18;;;;;;;7.03;2.30;;;;;;;7.37;100.00;99521.63;4990469;28;20026;-87
2023/12/13 07:37:43;;;;;;;7.35;2.78;;;;;;;7.36;100.00;99519.94;4996021;28;20466;-87
2023/12/13 07:40:09;;;;;;;8.60;2.70;;;;;;;7.37;100.00;99519.03;4990507;28;20041;-87
2023/12/13 07:42:34;;;;;;;7.82;2.60;;;;;;;7.36;100.00;99521.69;4993257;28;20096;-87
2023/12/13 07:45:00;;;;;;;9.60;3.35;;;;;;;7.37;100.00;99523.38;4985926;28;20025;-89
2023/12/13 07:47:25;;;;;;;9.68;3.08;;;;;;;7.37;100.00;99523.38;4997308;28;20030;-89
2023/12/13 07:49:51;;;;;;;8.88;2.92;;;;;;;7.37;100.00;99519.03;4987618;28;20029;-89
2023/12/13 07:52:17;;;;;;;7.25;3.00;;;;;;;7.37;100.00;99523.38;4992178;28;20053;-90
2023/12/13 07:54:42;;;;;;;7.78;2.85;;;;;;;7.37;100.00;99525.97;4996276;28;20026;-89
2023/12/13 07:57:08;;;;;;;7.35;2.97;;;;;;;7.37;100.00;99521.63;4985178;28;20497;-88
2023/12/13 07:59:33;;;;;;;6.35;2.80;;;;;;;7.36;100.00;99527.69;4996966;28;20026;-90
2023/12/13 08:01:59;;;;;;;8.40;3.00;;;;;;;7.37;100.00;99524.22;4998506;28;20033;-89
2023/12/13 08:04:24;;;;;;;6.22;2.92;;;;;;;7.37;100.00;99526.78;4990303;28;20541;-89
2023/12/13 08:06:49;;;;;;;7.72;2.83;;;;;;;7.37;100.00;99529.38;4991288;28;20032;-88
2023/12/13 08:09:18;;;;;;;9.00;2.90;;;;;;;7.38;100.00;99525.91;4997586;28;20076;-86
2023/12/13 08:11:44;;;;;;;6.55;3.03;;;;;;;7.36;100.00;99527.69;4998615;28;20064;-85
2023/12/13 08:14:09;;;;;;;8.10;3.42;;;;;;;7.38;100.00;99523.31;4995836;28;20038;-86
2023/12/13 08:16:34;;;;;;;5.82;2.97;;;;;;;7.38;100.00;99535.41;4991190;28;20054;-86
2023/12/13 08:19:00;;;;;;;8.38;3.13;;;;;;;7.37;100.00;99525.97;5002184;28;20026;-85
2023/12/13 08:21:25;;;;;;;6.38;3.10;;;;;;;7.38;100.00;99525.06;4999005;28;20114;-87
2023/12/13 08:23:50;;;;;;;7.75;2.97;;;;;;;7.40;100.00;99541.41;4999333;28;20021;-88
2023/12/13 08:26:17;;;;;;;6.18;3.00;;;;;;;7.39;100.00;99530.19;5005067;28;20038;-84
2023/12/13 08:28:42;;;;;;;6.43;2.95;;;;;;;7.41;100.00;99536.16;5004583;28;20127;-86
2023/12/13 08:31:08;;;;;;;6.03;2.80;;;;;;;7.42;100.00;99531.84;5002963;28;20106;-87
2023/12/13 08:33:34;;;;;;;7.63;2.70;;;;;;;7.43;100.00;99538.69;4988714;28;20034;-85
2023/12/13 08:35:59;;;;;;;6.70;3.03;;;;;;;7.44;100.00;99545.53;4997420;28;20026;-86
2023/12/13 08:38:25;;;;;;;7.10;2.92;;;;;;;7.45;100.00;99539.47;4994570;28;20034;-86
2023/12/13 08:40:50;;;;;;;6.20;2.88;;;;;;;7.46;100.00;99550.69;4994158;28;20077;-86
2023/12/13 08:43:16;;;;;;;6.72;2.75;;;;;;;7.47;100.00;99549.78;5002277;28;20088;-86
2023/12/13 08:45:42;;;;;;;9.00;3.22;;;;;;;7.48;100.00;99556.66;4987527;28;20053;-85
2023/12/13 08:48:07;;;;;;;8.25;3.05;;;;;;;7.49;100.00;99554.00;4987952;28;20104;-85
2023/12/13 08:50:33;;;;;;;7.82;2.65;;;;;;;7.51;100.00;99551.38;4990755;28;20420;-86
2023/12/13 08:52:58;;;;;;;6.68;2.83;;;;;;;7.50;100.00;99547.09;5000220;28;20021;-86
2023/12/13 08:55:24;;;;;;;6.38;2.70;;;;;;;7.52;100.00;99550.47;5003234;28;20104;-86
2023/12/13 08:57:49;;;;;;;7.47;2.67;;;;;;;7.53;100.00;99554.75;5002153;28;20128;-86
2023/12/13 09:00:15;;;;;;;7.30;3.00;;;;;;;7.54;100.00;99551.25;5006930;28;20038;-86
2023/12/13 09:02:40;;;;;;;5.75;2.60;;;;;;;7.53;100.00;99549.56;5001954;28;20034;-86
2023/12/13 09:05:06;;;;;;;8.20;2.67;;;;;;;7.56;100.00;99555.50;5000619;28;20496;-86
2023/12/13 09:07:31;;;;;;;6.18;3.13;;;;;;;7.59;100.00;99559.72;5002155;28;20024;-86
2023/12/13 09:09:57;;;;;;;6.55;2.92;;;;;;;7.59;100.00;99558.00;5002262;28;20025;-86
2023/12/13 09:12:22;;;;;;;7.10;2.95;;;;;;;7.63;100.00;99565.63;5006512;28;20105;-86
2023/12/13 09:14:47;;;;;;;6.82;2.78;;;;;;;7.65;100.00;99564.69;4990567;28;20029;-86
2023/12/13 09:17:13;;;;;;;8.93;2.88;;;;;;;7.67;100.00;99567.22;4988723;28;20041;-86
2023/12/13 09:19:38;;;;;;;7.85;3.47;;;;;;;7.69;100.00;99571.44;5006652;28;20058;-86
2023/12/13 09:22:03;;;;;;;9.13;2.85;;;;;;;7.71;100.00;99563.63;5009693;28;20461;-86
2023/12/13 09:24:29;;;;;;;7.28;3.10;;;;;;;7.72;100.00;99566.16;5006549;28;20439;-86
2023/12/13 09:26:55;;;;;;;6.88;3.50;;;;;;;7.74;100.00;99569.53;5006570;28;20037;-86
2023/12/13 09:29:20;;;;;;;8.13;3.25;;;;;;;7.76;100.00;99566.91;4980619;28;20023;-86
2023/12/13 09:31:45;;;;;;;6.50;3.30;;;;;;;7.80;100.00;99572.81;5004057;28;20031;-86
2023/12/13 09:34:11;;;;;;;6.10;3.33;;;;;;;7.83;100.00;99573.56;5003101;28;20122;-86
2023/12/13 09:36:36;;;;;;;7.53;3.28;;;;;;;7.87;100.00;99576.88;5002150;28;20027;-86
2023/12/13 09:39:01;;;;;;;7.35;3.55;;;;;;;7.92;100.00;99582.75;4993887;28;20056;-86
2023/12/13 09:41:40;;;;;;;8.80;3.70;;;;;;;7.97;100.00;99580.00;4998473;28;20041;-86
2023/12/13 09:44:05;;;;;;;7.10;3.80;;;;;;;8.02;100.00;99583.28;4990799;28;20480;-86
2023/12/13 09:46:30;;;;;;;10.02;4.03;;;;;;;8.08;100.00;99588.25;4995380;28;20149;-86
2023/12/13 09:48:56;;;;;;;7.53;3.95;;;;;;;8.15;100.00;99588.88;4993647;28;20030;-87
2023/12/13 09:51:22;;;;;;;8.35;4.03;;;;;;;8.21;100.00;99593.81;4998369;28;20026;-87
2023/12/13 09:53:51;;;;;;;7.88;3.90;;;;;;;8.27;100.00;99593.59;4991116;28;20508;-87
2023/12/13 09:56:16;;;;;;;8.05;4.40;;;;;;;8.30;100.00;99592.63;4994764;28;20026;-86
2023/12/13 09:58:42;;;;;;;7.20;4.22;;;;;;;8.33;100.00;99593.38;4995921;28;20381;-86
2023/12/13 10:01:14;;;;;;;7.97;3.63;;;;;;;8.33;100.00;99608.06;5001700;28;20481;-87
2023/12/13 10:03:40;;;;;;;9.57;4.25;;;;;;;8.33;100.00;99603.75;4987959;28;20038;-87
2023/12/13 10:06:07;;;;;;;11.52;4.18;;;;;;;8.31;100.00;99604.69;4999663;28;20038;-87
2023/12/13 10:08:33;;;;;;;10.00;4.25;;;;;;;8.28;100.00;99597.88;5000772;28;20030;-87
2023/12/13 10:10:58;;;;;;;8.90;4.45;;;;;;;8.25;100.00;99604.94;4991571;28;20075;-87
2023/12/13 10:13:26;;;;;;;10.45;4.47;;;;;;;8.20;100.00;99607.66;4981707;28;20466;-87
2023/12/13 10:15:51;;;;;;;9.68;4.38;;;;;;;8.18;100.00;99609.50;4993726;28;20181;-86
2023/12/13 10:18:17;;;;;;;10.63;4.38;;;;;;;8.17;100.00;99618.16;5006951;28;20096;-86
2023/12/13 10:20:44;;;;;;;10.18;4.50;;;;;;;8.16;100.00;99616.47;4992116;28;20120;-86
2023/12/13 10:23:09;;;;;;;9.88;4.47;;;;;;;8.15;100.00;99615.59;5003729;28;20034;-86
2023/12/13 10:25:40;;;;;;;9.18;4.10;;;;;;;8.16;100.00;99616.47;5021178;28;20034;-93
2023/12/13 10:28:06;;;;;;;7.65;3.88;;;;;;;8.18;100.00;99622.44;5025305;28;20037;-89
2023/12/13 10:30:32;;;;;;;6.85;3.90;;;;;;;8.20;100.00;99618.03;5011373;28;20092;-89
2023/12/13 10:32:58;;;;;;;9.00;4.10;;;;;;;8.25;100.00;99620.47;5010561;28;20112;-90
2023/12/13 10:35:24;;;;;;;10.50;4.05;;;;;;;8.27;100.00;99616.91;5000687;28;20133;-88
2023/12/13 10:37:51;;;;;;;8.07;3.95;;;;;;;8.31;100.00;99623.69;5009190;28;20030;-89
2023/12/13 10:40:17;;;;;;;11.63;4.00;;;;;;;8.35;100.00;99619.22;5004669;28;20029;-89
2023/12/13 10:42:45;;;;;;;9.75;4.15;;;;;;;8.38;100.00;99626.03;5001174;28;20033;-87
2023/12/13 10:45:11;;;;;;;8.40;3.75;;;;;;;8.38;100.00;99626.03;5000040;28;20682;-87
2023/12/13 10:47:44;;;;;;;8.70;4.00;;;;;;;8.39;100.00;99619.94;4999622;28;20038;-87
2023/12/13 10:50:10;;;;;;;7.28;3.67;;;;;;;8.41;100.00;99610.38;4998310;28;20034;-87
2023/12/13 10:52:37;;;;;;;7.28;3.80;;;;;;;8.43;100.00;99614.63;5003700;28;20110;-87
2023/12/13 10:55:04;;;;;;;6.97;3.50;;;;;;;8.47;100.00;99617.94;5006923;28;20034;-90
2023/12/13 10:57:30;;;;;;;6.57;3.70;;;;;;;8.53;100.00;99620.34;5009928;28;20037;-88
2023/12/13 10:59:55;;;;;;;7.35;3.55;;;;;;;8.59;100.00;99625.28;4993977;28;20030;-89
2023/12/13 11:02:22;;;;;;;6.28;3.50;;;;;;;8.61;100.00;99617.47;4993800;28;20030;-89
2023/12/13 11:04:48;;;;;;;7.97;3.50;;;;;;;8.63;100.00;99621.69;4997517;28;20025;-88
2023/12/13 11:07:13;;;;;;;7.82;3.50;;;;;;;8.63;100.00;99619.09;4989529;28;20030;-89
2023/12/13 11:09:55;;;;;;;7.07;3.20;;;;;;;8.65;100.00;99612.09;5004262;28;20370;-89
2023/12/13 11:12:20;;;;;;;7.00;3.58;;;;;;;8.63;100.00;99621.69;4997500;28;20045;-89
2023/12/13 11:14:52;;;;;;;6.70;3.28;;;;;;;8.63;100.00;99626.88;5001228;28;20018;-89
2023/12/13 11:17:21;;;;;;;;;;;;;;;8.65;100.00;99624.22;4973503;28;20038;-89
2023/12/13 11:19:47;;;;;;;7.15;3.22;;;;;;;8.61;100.00;99631.25;4986664;28;19969;-89
2023/12/13 11:22:12;;;;;;;7.32;3.45;;;;;;;8.58;100.00;99628.78;4991376;28;20384;-88
2023/12/13 11:24:40;;;;;;;6.55;3.33;;;;;;;8.58;100.00;99633.13;4974701;28;20033;-89
2023/12/13 11:27:10;;;;;;;8.52;3.63;;;;;;;8.57;100.00;99632.28;4971385;28;20471;-88